Time;durP1;ratioP1;P1;durP2;ratioP2;P2;SDS_P1;SDS_P2;PMS_P1;PMS_P2;Temp;Humidity;BMP_temperature;BMP_pressure;BME280_temperature;BME280_humidity;BME280_pressure;Samples;Min_cycle;Max_cycle;Signal;HPM_P1;HPM_P2
2022/12/29 00:01:15;;;;;;;;;;;;;;;7.97;75.92;100438.09;5084973;28;19928;-63
2022/12/29 00:03:40;;;;;;;;;;;;;;;7.98;75.83;100450.28;5084408;28;19932;-63
2022/12/29 00:06:05;;;;;;;;;;;;;;;7.98;75.96;100433.69;5086254;28;19924;-63
2022/12/29 00:08:40;;;;;;;;;;;;;;;7.99;75.86;100445.88;5069716;28;19916;-62
2022/12/29 00:11:09;;;;;;;;;;;;;;;7.97;75.94;100434.63;5083170;28;19939;-59
2022/12/29 00:16:19;;;;;;;;;;;;;;;8.01;76.11;100433.53;5084067;28;20057;-65
2022/12/29 00:18:45;;;;;;;;;;;;;;;8.01;76.21;100426.56;5084114;28;20011;-61
2022/12/29 00:35:09;;;;;;;;;;;;;;;8.00;76.37;100409.13;5084122;28;19943;-62
2022/12/29 00:45:55;;;;;;;;;;;;;;;8.02;76.50;100399.41;5084059;28;19926;-61
2022/12/29 00:51:04;;;;;;;;;;;;;;;8.03;76.50;100389.78;5067669;28;19974;-63
2022/12/29 00:53:30;;;;;;;;;;;;;;;8.02;76.78;100388.09;5050024;28;20027;-63
2022/12/29 00:55:55;;;;;;;;;;;;;;;8.00;76.75;100390.78;5069631;28;20291;-61
2022/12/29 00:58:20;;;;;;;;;;;;;;;8.00;76.45;100392.56;5079475;28;19927;-62
2022/12/29 01:00:45;;;;;;;;;;;;;;;8.00;76.48;100395.16;5083875;28;19920;-63
2022/12/29 01:03:11;;;;;;;;;;;;;;;8.02;76.64;100393.31;5077290;28;20015;-61
2022/12/29 01:05:36;;;;;;;;;;;;;;;8.03;76.63;100395.00;5085495;28;20205;-63
2022/12/29 01:08:02;;;;;;;;;;;;;;;8.05;76.46;100387.91;5083136;28;19920;-64
2022/12/29 01:10:27;;;;;;;;;;;;;;;8.07;76.34;100392.16;5080412;28;19920;-61
2022/12/29 01:12:52;;;;;;;;;;;;;;;8.05;76.43;100390.53;5087032;28;19913;-64
2022/12/29 01:15:17;;;;;;;;;;;;;;;8.08;76.43;100387.78;5086696;28;19924;-63
2022/12/29 01:17:43;;;;;;;;;;;;;;;8.10;76.36;100388.50;5078722;28;19978;-61
2022/12/29 01:20:09;;;;;;;;;;;;;;;8.09;76.25;100381.59;5083986;28;19927;-63
2022/12/29 01:22:34;;;;;;;;;;;;;;;8.11;76.35;100384.97;5083133;28;19959;-62
2022/12/29 01:24:59;;;;;;;;;;;;;;;8.12;76.32;100386.66;5087354;28;20396;-63
2022/12/29 01:27:25;;;;;;;;;;;;;;;8.15;76.32;100383.88;5085739;28;19939;-61
2022/12/29 01:29:50;;;;;;;;;;;;;;;8.16;76.31;100395.22;5082731;28;20030;-63
2022/12/29 01:32:15;;;;;;;;;;;;;;;8.12;76.55;100386.66;5086791;28;20414;-60
2022/12/29 01:34:40;;;;;;;;;;;;;;;8.13;76.56;100380.50;5078696;28;19959;-63
2022/12/29 01:37:06;;;;;;;;;;;;;;;8.18;76.66;100378.47;5083359;28;20012;-61
2022/12/29 01:39:31;;;;;;;;;;;;;;;8.16;76.53;100369.84;5080333;28;19965;-63
2022/12/29 01:41:56;;;;;;;;;;;;;;;8.12;76.67;100367.47;5082387;28;20286;-63
2022/12/29 01:44:40;;;;;;;;;;;;;;;8.11;76.74;100361.38;5086355;28;19938;-62
2022/12/29 01:47:07;;;;;;;;;;;;;;;8.09;76.56;100355.41;5083491;28;19919;-61
2022/12/29 01:49:32;;;;;;;;;;;;;;;8.09;76.79;100345.75;5085120;28;19916;-63
2022/12/29 01:51:59;;;;;;;;;;;;;;;8.11;76.52;100345.66;5078372;28;20857;-63
2022/12/29 01:54:27;;;;;;;;;;;;;;;8.10;76.53;100330.84;5052310;28;19928;-63
2022/12/29 01:56:55;;;;;;;;;;;;;;;8.05;76.84;100335.50;5062772;28;19921;-63
2022/12/29 01:59:22;;;;;;;;;;;;;;;8.04;76.80;100325.97;5067983;28;20366;-63
2022/12/29 02:01:48;;;;;;;;;;;;;;;8.02;76.78;100333.06;5066156;28;19932;-62
2022/12/29 02:04:13;;;;;;;;;;;;;;;8.01;77.03;100326.13;5051198;28;19928;-63
2022/12/29 02:06:47;;;;;;;;;;;;;;;8.02;76.92;100325.19;5061168;28;19920;-64
2022/12/29 02:09:13;;;;;;;;;;;;;;;8.00;77.19;100319.19;5062695;28;19924;-65
2022/12/29 02:11:38;;;;;;;;;;;;;;;7.96;77.39;100322.88;5075415;28;19931;-65
2022/12/29 02:14:10;;;;;;;;;;;;;;;7.99;77.33;100330.59;5083498;28;19950;-63
2022/12/29 02:16:42;;;;;;;;;;;;;;;8.01;77.26;100316.50;5073748;28;19924;-64
2022/12/29 02:19:33;;;;;;;;;;;;;;;8.02;77.14;100314.72;5071140;28;20062;-64
2022/12/29 02:22:16;;;;;;;;;;;;;;;8.04;77.19;100315.47;5067601;28;19939;-62
2022/12/29 02:24:42;;;;;;;;;;;;;;;8.03;77.23;100319.84;5062268;28;19960;-61
2022/12/29 02:27:26;;;;;;;;;;;;;;;8.03;77.16;100316.41;5047172;28;20117;-61
2022/12/29 02:29:57;;;;;;;;;;;;;;;8.07;77.22;100315.31;5061502;28;19924;-64
2022/12/29 02:32:30;;;;;;;;;;;;;;;8.06;77.14;100317.06;5063482;28;19928;-62
2022/12/29 02:34:56;;;;;;;;;;;;;;;8.07;77.10;100299.59;5062659;28;19971;-64
2022/12/29 02:37:40;;;;;;;;;;;;;;;8.06;77.02;100298.72;5055367;28;20123;-64
2022/12/29 02:40:24;;;;;;;;;;;;;;;8.08;77.07;100301.28;5062531;28;19929;-65
2022/12/29 02:42:51;;;;;;;;;;;;;;;8.08;77.09;100293.44;5060458;28;19924;-64
2022/12/29 02:45:38;;;;;;;;;;;;;;;8.08;76.89;100290.81;5078294;28;19959;-64
2022/12/29 02:48:09;;;;;;;;;;;;;;;8.07;77.15;100294.34;5059674;28;20001;-63
2022/12/29 02:50:45;;;;;;;;;;;;;;;8.07;77.21;100291.75;5065991;28;20971;-64
2022/12/29 02:53:13;;;;;;;;;;;;;;;8.07;77.06;100304.84;5069151;28;20003;-63
2022/12/29 02:55:38;;;;;;;;;;;;;;;8.07;77.23;100294.34;5059027;28;19928;-64
2022/12/29 02:58:17;;;;;;;;;;;;;;;8.09;77.19;100297.75;5068139;28;19959;-63
2022/12/29 03:00:52;;;;;;;;;;;;;;;8.10;77.13;100296.78;5079036;28;19951;-63
2022/12/29 03:03:17;;;;;;;;;;;;;;;8.13;77.00;100288.75;5074366;28;19915;-64
2022/12/29 03:05:52;;;;;;;;;;;;;;;8.12;77.21;100281.81;5079753;28;20318;-64
2022/12/29 03:08:43;;;;;;;;;;;;;;;8.12;77.34;100275.75;5083951;28;19920;-60
2022/12/29 03:17:14;;;;;;;;;;;;;;;8.16;77.22;100283.34;5083231;28;19922;-64
2022/12/29 03:19:43;;;;;;;;;;;;;;;8.16;77.38;100282.53;5083964;28;19974;-63
2022/12/29 03:22:27;;;;;;;;;;;;;;;8.15;77.33;100271.19;5082060;28;20262;-60
2022/12/29 03:24:54;;;;;;;;;;;;;;;8.16;77.21;100283.34;5080657;28;20366;-65
2022/12/29 03:27:23;;;;;;;;;;;;;;;8.16;77.30;100288.59;5058342;28;19959;-63
2022/12/29 03:29:54;;;;;;;;;;;;;;;8.16;77.34;100285.16;5067545;28;19981;-62
2022/12/29 03:32:21;;;;;;;;;;;;;;;8.17;77.47;100284.19;5080071;28;20445;-64
2022/12/29 03:34:48;;;;;;;;;;;;;;;8.21;77.28;100286.59;5083380;28;19920;-63
2022/12/29 03:37:15;;;;;;;;;;;;;;;8.22;77.19;100282.16;5087415;28;19912;-61
2022/12/29 03:39:40;;;;;;;;;;;;;;;8.23;77.11;100274.25;5079024;28;19920;-60
2022/12/29 03:42:09;;;;;;;;;;;;;;;8.24;77.12;100264.59;5070274;28;20379;-61
2022/12/29 03:44:40;;;;;;;;;;;;;;;8.28;76.87;100273.13;5087282;28;19917;-63
2022/12/29 03:47:06;;;;;;;;;;;;;;;8.29;76.79;100270.44;5079544;28;19924;-63
2022/12/29 03:49:32;;;;;;;;;;;;;;;8.30;76.94;100264.25;5086497;28;19916;-63
2022/12/29 03:51:57;;;;;;;;;;;;;;;8.32;76.77;100254.50;5087467;28;20007;-63
2022/12/29 03:54:23;;;;;;;;;;;;;;;8.32;76.72;100261.53;5071238;28;19967;-64
2022/12/29 03:56:48;;;;;;;;;;;;;;;8.34;76.56;100246.56;5068636;28;19928;-64
2022/12/29 03:59:14;;;;;;;;;;;;;;;8.35;76.72;100249.09;5083800;28;19971;-62
2022/12/29 04:01:39;;;;;;;;;;;;;;;8.34;76.67;100243.94;5075245;28;20290;-61
2022/12/29 04:04:04;;;;;;;;;;;;;;;8.36;76.48;100242.94;5082502;28;19951;-63
2022/12/29 04:06:30;;;;;;;;;;;;;;;8.40;76.26;100246.22;5086569;28;20302;-61
2022/12/29 04:08:55;;;;;;;;;;;;;;;8.40;75.96;100243.59;5083253;28;19962;-63
2022/12/29 04:11:21;;;;;;;;;;;;;;;8.41;75.92;100239.22;5079327;28;19920;-62
2022/12/29 04:13:46;;;;;;;;;;;;;;;8.41;76.10;100232.16;5062241;28;20638;-60
2022/12/29 04:16:12;;;;;;;;;;;;;;;8.42;75.81;100228.63;5083458;28;19954;-60
2022/12/29 04:18:37;;;;;;;;;;;;;;;8.44;75.68;100234.63;5085397;28;20287;-62
2022/12/29 04:21:03;;;;;;;;;;;;;;;8.46;75.64;100245.03;5084449;28;19923;-62
2022/12/29 04:23:30;;;;;;;;;;;;;;;8.46;75.39;100242.41;5069511;28;19920;-62
2022/12/29 04:25:55;;;;;;;;;;;;;;;8.47;75.47;100239.69;5087026;28;19913;-63
2022/12/29 04:28:20;;;;;;;;;;;;;;;8.49;75.40;100239.63;5077619;28;20729;-61
2022/12/29 04:30:46;;;;;;;;;;;;;;;8.50;75.11;100239.56;5087134;28;20252;-65
2022/12/29 04:33:11;;;;;;;;;;;;;;;8.48;75.13;100233.56;5082484;28;20340;-65
2022/12/29 04:35:37;;;;;;;;;;;;;;;8.46;75.06;100238.00;5080458;28;19938;-66
2022/12/29 04:38:02;;;;;;;;;;;;;;;8.48;75.07;100238.81;5071057;28;19928;-63
2022/12/29 04:40:28;;;;;;;;;;;;;;;8.49;75.03;100227.38;5079808;28;19948;-64
2022/12/29 04:42:53;;;;;;;;;;;;;;;8.51;74.83;100222.91;5074633;28;20284;-66
2022/12/29 04:45:18;;;;;;;;;;;;;;;8.53;74.63;100226.28;5081520;28;20299;-65
2022/12/29 04:47:44;;;;;;;;;;;;;;;8.56;74.73;100216.53;5072600;28;19928;-65
2022/12/29 04:50:09;;;;;;;;;;;;;;;8.56;74.60;100220.00;5085096;28;19955;-65
2022/12/29 04:52:34;;;;;;;;;;;;;;;8.58;74.57;100210.28;5072039;28;19916;-64
2022/12/29 04:55:00;;;;;;;;;;;;;;;8.58;74.53;100214.66;5074058;28;19971;-64
2022/12/29 04:57:25;;;;;;;;;;;;;;;8.59;74.40;100217.22;5083066;28;20006;-64
2022/12/29 04:59:51;;;;;;;;;;;;;;;8.59;74.16;100218.97;5077912;28;19947;-63
2022/12/29 05:02:16;;;;;;;;;;;;;;;8.57;74.17;100219.06;5077327;28;19935;-64
2022/12/29 05:04:42;;;;;;;;;;;;;;;8.57;74.16;100215.59;5047187;28;19927;-65
2022/12/29 05:07:07;;;;;;;;;;;;;;;8.58;74.27;100207.66;5086528;28;19920;-64
2022/12/29 05:09:33;;;;;;;;;;;;;;;8.54;74.18;100183.41;5087609;28;19920;-65
2022/12/29 05:11:58;;;;;;;;;;;;;;;8.53;74.19;100181.69;5077155;28;19932;-65
2022/12/29 05:14:23;;;;;;;;;;;;;;;8.56;74.01;100206.03;5077569;28;20054;-64
2022/12/29 05:16:49;;;;;;;;;;;;;;;8.53;74.01;100192.19;5068394;28;19962;-65
2022/12/29 05:19:14;;;;;;;;;;;;;;;8.54;73.94;100199.13;5080003;28;20059;-65
2022/12/29 05:21:40;;;;;;;;;;;;;;;8.50;74.10;100194.97;5081047;28;20283;-64
2022/12/29 05:24:05;;;;;;;;;;;;;;;8.51;74.00;100183.56;5085084;28;19927;-64
2022/12/29 05:26:30;;;;;;;;;;;;;;;8.48;74.13;100194.22;5084126;28;19916;-65
2022/12/29 05:28:56;;;;;;;;;;;;;;;8.46;74.10;100196.06;5075801;28;19935;-64
2022/12/29 05:31:21;;;;;;;;;;;;;;;8.46;74.14;100185.56;5072385;28;19935;-64
2022/12/29 05:33:46;;;;;;;;;;;;;;;8.46;74.07;100189.97;5072235;28;20345;-63
2022/12/29 05:36:12;;;;;;;;;;;;;;;8.44;73.93;100179.56;5079963;28;19928;-65
2022/12/29 05:38:37;;;;;;;;;;;;;;;8.42;73.94;100173.56;5071348;28;19920;-63
2022/12/29 05:41:02;;;;;;;;;;;;;;;8.41;74.18;100165.78;5083369;28;19928;-63
2022/12/29 05:43:28;;;;;;;;;;;;;;;8.39;74.30;100176.38;5084476;28;19958;-65
2022/12/29 05:45:53;;;;;;;;;;;;;;;8.41;74.18;100178.91;5082550;28;20586;-64
2022/12/29 05:48:19;;;;;;;;;;;;;;;8.43;74.22;100172.63;5082636;28;20000;-64
2022/12/29 05:50:51;;;;;;;;;;;;;;;8.45;74.26;100170.78;5077577;28;20444;-64
2022/12/29 05:53:17;;;;;;;;;;;;;;;8.48;73.99;100161.91;5075543;28;20053;-65
2022/12/29 05:55:43;;;;;;;;;;;;;;;8.46;74.15;100153.28;5056854;28;19928;-64
2022/12/29 05:58:08;;;;;;;;;;;;;;;8.47;74.09;100150.56;5080075;28;20619;-65
2022/12/29 06:00:33;;;;;;;;;;;;;;;8.50;73.96;100145.16;5077607;28;20425;-65
2022/12/29 06:02:59;;;;;;;;;;;;;;;8.45;74.06;100136.69;5077404;28;19916;-65
2022/12/29 06:05:24;;;;;;;;;;;;;;;8.43;74.10;100143.78;5084220;28;19952;-65
2022/12/29 06:07:49;;;;;;;;;;;;;;;8.43;74.01;100151.66;5081437;28;19942;-65
2022/12/29 06:10:15;;;;;;;;;;;;;;;8.39;74.17;100156.25;5056932;28;19920;-65
2022/12/29 06:12:40;;;;;;;;;;;;;;;8.43;74.05;100161.31;5079610;28;19928;-62
2022/12/29 06:15:05;;;;;;;;;;;;;;;8.45;74.05;100156.81;5088043;28;19920;-65
2022/12/29 06:17:31;;;;;;;;;;;;;;;8.48;73.91;100148.78;5085235;28;19951;-65
2022/12/29 06:19:56;;;;;;;;;;;;;;;8.46;73.89;100143.63;5078145;28;19951;-62
2022/12/29 06:22:21;;;;;;;;;;;;;;;8.48;73.99;100151.41;5087056;28;19927;-61
2022/12/29 06:24:47;;;;;;;;;;;;;;;8.52;73.94;100163.41;5080211;28;20010;-68
2022/12/29 06:27:13;;;;;;;;;;;;;;;8.52;73.84;100156.41;5081352;28;19920;-63
2022/12/29 06:29:40;;;;;;;;;;;;;;;8.61;73.79;100162.03;5077319;28;19924;-61
2022/12/29 06:32:06;;;;;;;;;;;;;;;8.64;73.57;100161.88;5083518;28;19916;-58
2022/12/29 06:34:31;;;;;;;;;;;;;;;8.69;73.50;100162.44;5082916;28;20302;-61
2022/12/29 06:36:56;;;;;;;;;;;;;;;8.72;73.43;100162.25;5084075;28;19920;-64
2022/12/29 06:39:23;;;;;;;;;;;;;;;8.76;73.34;100161.13;5085826;28;20273;-65
2022/12/29 06:41:51;;;;;;;;;;;;;;;8.77;73.32;100160.19;5081288;28;19924;-65
2022/12/29 06:44:17;;;;;;;;;;;;;;;8.81;73.24;100163.47;5079229;28;19924;-64
2022/12/29 06:46:42;;;;;;;;;;;;;;;8.81;73.12;100164.34;5081960;28;19928;-63
2022/12/29 06:49:07;;;;;;;;;;;;;;;8.86;73.11;100169.31;5083166;28;20359;-63
2022/12/29 06:51:32;;;;;;;;;;;;;;;8.89;72.97;100170.88;5083474;28;19920;-65
2022/12/29 06:53:58;;;;;;;;;;;;;;;8.93;73.07;100182.91;5082119;28;19978;-64
2022/12/29 06:56:23;;;;;;;;;;;;;;;8.95;72.95;100178.41;5078703;28;19970;-64
2022/12/29 06:58:48;;;;;;;;;;;;;;;8.99;72.79;100182.53;5083931;28;19986;-64
2022/12/29 07:01:14;;;;;;;;;;;;;;;8.98;72.77;100179.06;5085246;28;21163;-65
2022/12/29 07:03:41;;;;;;;;;;;;;;;9.02;72.68;100171.84;5083166;28;19931;-63
2022/12/29 07:06:06;;;;;;;;;;;;;;;9.02;72.98;100171.84;5084413;28;19924;-65
2022/12/29 07:08:31;;;;;;;;;;;;;;;9.04;73.14;100174.38;5082123;28;19928;-64
2022/12/29 07:10:57;;;;;;;;;;;;;;;9.04;73.30;100177.00;5055647;28;20741;-63
2022/12/29 07:13:22;;;;;;;;;;;;;;;9.05;73.53;100166.41;5064337;28;19934;-63
2022/12/29 07:15:48;;;;;;;;;;;;;;;9.05;73.55;100166.41;5070892;28;19967;-64
2022/12/29 07:18:13;;;;;;;;;;;;;;;9.06;73.56;100162.84;5070949;28;19955;-64
2022/12/29 07:20:38;;;;;;;;;;;;;;;9.04;73.53;100167.34;5059418;28;19924;-64
2022/12/29 07:23:04;;;;;;;;;;;;;;;9.05;73.61;100148.03;5073295;28;19924;-63
2022/12/29 07:25:29;;;;;;;;;;;;;;;9.06;73.61;100152.34;5083782;28;19924;-63
2022/12/29 07:27:54;;;;;;;;;;;;;;;9.08;73.50;100150.47;5081217;28;20821;-63
2022/12/29 07:30:20;;;;;;;;;;;;;;;9.12;73.53;100144.13;5081591;28;20007;-64
2022/12/29 07:32:45;;;;;;;;;;;;;;;9.12;73.48;100149.38;5075240;28;19921;-62
2022/12/29 07:35:10;;;;;;;;;;;;;;;9.14;73.55;100150.13;5082554;28;20386;-63
2022/12/29 07:37:36;;;;;;;;;;;;;;;9.17;73.47;100149.06;5082193;28;20011;-62
2022/12/29 07:40:03;;;;;;;;;;;;;;;9.20;73.38;100153.28;5079800;28;19921;-64
2022/12/29 07:42:28;;;;;;;;;;;;;;;9.18;73.33;100152.53;5081646;28;19963;-63
2022/12/29 07:44:53;;;;;;;;;;;;;;;9.14;73.46;100144.88;5082754;28;20020;-61
2022/12/29 07:47:19;;;;;;;;;;;;;;;9.14;73.46;100144.00;5082927;28;19932;-63
2022/12/29 07:49:44;;;;;;;;;;;;;;;9.12;73.45;100156.38;5073940;28;19920;-62
2022/12/29 07:52:09;;;;;;;;;;;;;;;9.12;73.40;100154.63;5081859;28;19923;-63
2022/12/29 07:54:35;;;;;;;;;;;;;;;9.10;73.59;100138.09;5083993;28;19928;-63
2022/12/29 07:57:00;;;;;;;;;;;;;;;9.10;73.59;100139.88;5079669;28;19970;-63
2022/12/29 07:59:26;;;;;;;;;;;;;;;9.09;73.57;100140.81;5086565;28;19928;-64
2022/12/29 08:01:51;;;;;;;;;;;;;;;9.08;73.73;100134.72;5084295;28;19946;-64
2022/12/29 08:04:16;;;;;;;;;;;;;;;9.08;73.72;100145.22;5084366;28;20011;-62
2022/12/29 08:06:42;;;;;;;;;;;;;;;9.09;73.70;100141.66;5079197;28;19923;-65
2022/12/29 08:09:08;;;;;;;;;;;;;;;9.11;73.77;100138.94;5076692;28;19924;-63
2022/12/29 08:11:33;;;;;;;;;;;;;;;9.12;73.75;100131.00;5077506;28;21802;-65
2022/12/29 08:13:58;;;;;;;;;;;;;;;9.12;73.81;100128.38;5060620;28;19931;-64
2022/12/29 08:16:24;;;;;;;;;;;;;;;9.14;73.73;100129.13;5062639;28;19946;-64
2022/12/29 08:18:49;;;;;;;;;;;;;;;9.15;73.85;100125.53;5079381;28;19934;-64
2022/12/29 08:21:14;;;;;;;;;;;;;;;9.20;73.75;100127.03;5085545;28;19970;-64
2022/12/29 08:23:40;;;;;;;;;;;;;;;9.22;73.84;100127.78;5085419;28;20761;-64
2022/12/29 08:26:05;;;;;;;;;;;;;;;9.24;73.82;100139.88;5060332;28;21066;-65
2022/12/29 08:28:32;;;;;;;;;;;;;;;9.31;73.55;100142.94;5075386;28;19920;-63
2022/12/29 08:30:58;;;;;;;;;;;;;;;9.35;73.86;100146.25;5078915;28;19939;-63
2022/12/29 08:33:23;;;;;;;;;;;;;;;9.39;73.69;100150.34;5084952;28;19920;-63
2022/12/29 08:35:49;;;;;;;;;;;;;;;9.44;73.34;100143.03;5085811;28;19920;-62
2022/12/29 08:38:14;;;;;;;;;;;;;;;9.49;73.53;100151.50;5087594;28;19974;-64
2022/12/29 08:40:39;;;;;;;;;;;;;;;9.56;73.37;100160.66;5087823;28;19917;-65
2022/12/29 08:43:05;;;;;;;;;;;;;;;9.64;72.99;100156.72;5084779;28;19920;-63
2022/12/29 08:45:30;;;;;;;;;;;;;;;9.71;72.88;100147.50;5080617;28;19924;-64
2022/12/29 08:47:55;;;;;;;;;;;;;;;9.79;72.61;100144.38;5083747;28;19924;-65
2022/12/29 08:50:21;;;;;;;;;;;;;;;9.87;72.37;100145.56;5065475;27;19931;-65
2022/12/29 08:52:46;;;;;;;;;;;;;;;9.95;72.01;100139.00;5065951;28;20017;-63
2022/12/29 08:55:11;;;;;;;;;;;;;;;10.01;71.78;100139.44;5066868;28;20307;-64
2022/12/29 08:57:37;;;;;;;;;;;;;;;10.08;71.44;100132.00;5074611;28;19924;-64
2022/12/29 09:00:03;;;;;;;;;;;;;;;10.15;71.42;100130.63;5083175;28;19924;-64
2022/12/29 09:02:29;;;;;;;;;;;;;;;10.18;71.29;100140.94;5081924;28;19996;-64
2022/12/29 09:04:54;;;;;;;;;;;;;;;10.24;71.17;100142.31;5081513;28;19920;-62
2022/12/29 09:07:19;;;;;;;;;;;;;;;10.28;70.84;100135.94;5062405;28;19935;-63
2022/12/29 09:09:45;;;;;;;;;;;;;;;10.33;71.07;100151.38;5071748;28;20365;-64
2022/12/29 09:12:10;;;;;;;;;;;;;;;10.39;70.96;100144.91;5055636;28;19959;-64
2022/12/29 09:14:35;;;;;;;;;;;;;;;10.43;70.79;100134.09;5078983;28;21307;-64
2022/12/29 09:19:44;;;;;;;;;;;;;;;10.55;70.61;100119.28;5077921;28;19927;-64
2022/12/29 09:22:10;;;;;;;;;;;;;;;10.59;70.59;100128.66;5079038;28;19920;-62
2022/12/29 09:24:35;;;;;;;;;;;;;;;10.61;70.29;100121.50;5078077;28;20012;-64
2022/12/29 09:27:00;;;;;;;;;;;;;;;10.64;70.52;100126.56;5078756;28;20371;-64
2022/12/29 09:29:26;;;;;;;;;;;;;;;10.68;70.30;100133.28;5071555;28;20638;-64
2022/12/29 09:31:51;;;;;;;;;;;;;;;10.76;70.05;100135.38;5073358;28;19920;-65
2022/12/29 09:34:16;;;;;;;;;;;;;;;10.82;69.81;100124.44;5054614;28;20018;-64
2022/12/29 09:36:42;;;;;;;;;;;;;;;10.90;69.79;100121.28;5076749;28;20287;-62
2022/12/29 09:39:08;;;;;;;;;;;;;;;10.95;69.48;100116.56;5078768;28;19935;-63
2022/12/29 09:41:59;;;;;;;;;;;;;;;10.98;69.03;100113.69;5078256;28;19916;-64
2022/12/29 09:44:44;;;;;;;;;;;;;;;10.96;69.04;100110.34;5081383;28;19916;-64
2022/12/29 09:47:11;;;;;;;;;;;;;;;10.94;68.78;100106.97;5058554;28;20445;-64
2022/12/29 09:49:45;;;;;;;;;;;;;;;10.93;68.97;100105.28;5074670;28;19927;-64
2022/12/29 09:52:25;;;;;;;;;;;;;;;10.93;69.25;100110.56;5068333;28;20133;-63
2022/12/29 09:54:53;;;;;;;;;;;;;;;10.91;69.31;100106.31;5060485;28;19924;-63
2022/12/29 09:57:26;;;;;;;;;;;;;;;10.92;69.31;100105.38;5082488;28;19920;-62
2022/12/29 09:59:55;;;;;;;;;;;;;;;10.97;69.20;100096.19;5065449;28;19973;-65
2022/12/29 10:02:28;;;;;;;;;;;;;;;11.03;69.09;100110.75;5076907;28;19981;-64
2022/12/29 10:04:54;;;;;;;;;;;;;;;11.11;68.82;100105.78;5079848;28;20419;-63
2022/12/29 10:07:36;;;;;;;;;;;;;;;11.20;68.68;100099.03;5070446;28;19935;-65
2022/12/29 10:10:17;;;;;;;;;;;;;;;11.28;68.25;100109.84;5076298;28;19927;-63
2022/12/29 10:12:48;;;;;;;;;;;;;;;11.36;68.06;100106.66;5059496;28;19982;-63
2022/12/29 10:15:19;;;;;;;;;;;;;;;11.40;67.96;100121.31;5076804;28;19924;-65
2022/12/29 10:17:44;;;;;;;;;;;;;;;11.47;67.88;100097.19;5051319;28;20037;-65
2022/12/29 10:20:16;;;;;;;;;;;;;;;11.51;67.66;100099.47;5070103;28;20396;-65
2022/12/29 10:22:41;;;;;;;;;;;;;;;11.55;67.07;100098.31;5072945;28;19935;-65
2022/12/29 10:25:12;;;;;;;;;;;;;;;11.64;67.13;100101.22;5071247;28;19925;-65
2022/12/29 10:27:38;;;;;;;;;;;;;;;11.69;67.15;100107.00;5077496;28;19920;-65
2022/12/29 10:30:03;;;;;;;;;;;;;;;11.73;66.95;100105.81;5070122;28;19935;-64
2022/12/29 10:32:35;;;;;;;;;;;;;;;11.78;67.02;100116.88;5077515;28;20476;-65
2022/12/29 10:35:04;;;;;;;;;;;;;;;11.84;66.49;100116.44;5065106;28;19924;-65
2022/12/29 10:37:49;;;;;;;;;;;;;;;11.89;66.40;100114.28;5070329;28;19924;-66
2022/12/29 10:40:26;;;;;;;;;;;;;;;11.97;66.11;100118.16;5079903;28;19923;-64
2022/12/29 10:42:56;;;;;;;;;;;;;;;12.01;66.12;100119.66;5068880;28;19924;-64
2022/12/29 10:45:23;;;;;;;;;;;;;;;12.05;65.72;100115.81;5072552;28;19924;-64
2022/12/29 10:48:03;;;;;;;;;;;;;;;12.05;65.78;100121.09;5080553;28;19920;-64
2022/12/29 10:50:32;;;;;;;;;;;;;;;12.05;65.67;100107.91;5069378;28;20621;-65
2022/12/29 10:53:00;;;;;;;;;;;;;;;12.04;65.65;100124.69;5079692;28;19924;-63
2022/12/29 10:55:30;;;;;;;;;;;;;;;12.05;65.85;100118.47;5072072;28;19929;-63
2022/12/29 10:57:59;;;;;;;;;;;;;;;12.07;65.79;100110.44;5067836;28;19924;-64
2022/12/29 11:00:24;;;;;;;;;;;;;;;12.09;65.75;100109.38;5066998;28;20430;-64
2022/12/29 11:03:09;;;;;;;;;;;;;;;12.13;65.73;100102.91;5058397;28;20366;-64
2022/12/29 11:05:45;;;;;;;;;;;;;;;12.18;65.55;100108.69;5069865;28;20022;-63
2022/12/29 11:08:13;;;;;;;;;;;;;;;12.23;65.54;100099.59;5066022;28;19924;-63
2022/12/29 11:10:40;;;;;;;;;;;;;;;12.29;65.03;100109.69;5070992;28;19916;-65
2022/12/29 11:13:12;;;;;;;;;;;;;;;12.34;65.24;100103.09;5064366;28;20027;-65
2022/12/29 11:15:42;;;;;;;;;;;;;;;12.35;64.99;100099.50;5058575;28;19931;-65
2022/12/29 11:18:24;;;;;;;;;;;;;;;12.37;65.00;100104.66;5062284;28;19931;-64
2022/12/29 11:20:54;;;;;;;;;;;;;;;12.35;64.77;100109.22;5058476;28;20190;-65
2022/12/29 11:23:22;;;;;;;;;;;;;;;12.32;64.88;100105.00;5054163;28;19938;-64
2022/12/29 11:26:06;;;;;;;;;;;;;;;12.33;65.19;100100.56;5075033;28;19924;-63
2022/12/29 11:28:33;;;;;;;;;;;;;;;12.33;65.02;100104.06;5066456;28;19916;-61
2022/12/29 11:31:02;;;;;;;;;;;;;;;12.28;64.78;100103.56;5061881;28;19966;-65
2022/12/29 11:33:29;;;;;;;;;;;;;;;12.28;64.88;100102.72;5077862;28;19912;-65
2022/12/29 11:35:59;;;;;;;;;;;;;;;12.26;65.11;100100.19;5077508;28;20043;-65
2022/12/29 11:38:29;;;;;;;;;;;;;;;12.22;65.17;100109.31;5079924;28;20423;-64
2022/12/29 11:40:54;;;;;;;;;;;;;;;12.20;65.37;100109.41;5085624;28;19931;-65
2022/12/29 11:43:39;;;;;;;;;;;;;;;12.17;65.36;100117.56;5074887;28;19929;-64
2022/12/29 11:46:05;;;;;;;;;;;;;;;12.14;65.53;100120.44;5077956;28;19912;-64
2022/12/29 11:48:41;;;;;;;;;;;;;;;12.16;65.33;100137.00;5069574;28;19943;-65
2022/12/29 11:51:07;;;;;;;;;;;;;;;12.16;65.60;100121.16;5079024;28;19928;-65
2022/12/29 11:53:39;;;;;;;;;;;;;;;12.20;65.37;100122.59;5083594;28;19938;-65
2022/12/29 11:56:09;;;;;;;;;;;;;;;12.25;65.25;100110.88;5072017;28;20544;-65
2022/12/29 11:58:36;;;;;;;;;;;;;;;12.26;65.27;100115.19;5070606;28;19926;-65
2022/12/29 12:01:23;;;;;;;;;;;;;;;12.32;65.52;100114.75;5065163;28;19954;-65
2022/12/29 12:03:56;;;;;;;;;;;;;;;12.36;65.46;100116.16;5081790;28;19916;-64
2022/12/29 12:06:24;;;;;;;;;;;;;;;12.37;65.40;100117.84;5081631;28;19916;-65
2022/12/29 12:08:56;;;;;;;;;;;;;;;12.36;65.45;100121.44;5075818;28;19920;-65
2022/12/29 12:11:36;;;;;;;;;;;;;;;12.35;65.48;100114.47;5077758;28;19924;-64
2022/12/29 12:14:20;;;;;;;;;;;;;;;12.29;66.00;100118.44;5083872;28;19924;-64
2022/12/29 12:16:56;;;;;;;;;;;;;;;12.26;66.36;100123.09;5081462;28;19981;-63
2022/12/29 12:19:41;;;;;;;;;;;;;;;12.24;66.76;100111.81;5077401;28;20027;-64
2022/12/29 12:22:24;;;;;;;;;;;;;;;12.23;66.81;100103.09;5070814;28;19916;-61
2022/12/29 12:24:54;;;;;;;;;;;;;;;12.22;67.23;100106.66;5084690;28;19932;-63
2022/12/29 12:27:34;;;;;;;;;;;;;;;12.23;67.33;100104.84;5078203;28;20742;-63
2022/12/29 12:30:14;;;;;;;;;;;;;;;12.19;67.58;100107.72;5079752;28;19963;-63
2022/12/29 12:32:52;;;;;;;;;;;;;;;12.15;67.80;100103.66;5085323;28;19924;-63
2022/12/29 12:35:36;;;;;;;;;;;;;;;12.17;67.93;100103.53;5075531;28;19926;-64
2022/12/29 12:38:39;;;;;;;;;;;;;;;12.14;68.25;100107.25;5079414;28;19920;-63
2022/12/29 12:41:08;;;;;;;;;;;;;;;12.13;68.11;100120.53;4995461;28;19929;-63
2022/12/29 12:43:41;;;;;;;;;;;;;;;12.11;67.89;100112.75;4997202;28;19917;-65
2022/12/29 12:46:12;;;;;;;;;;;;;;;12.07;67.74;100106.00;5032187;28;19944;-63
2022/12/29 12:48:37;;;;;;;;;;;;;;;12.07;67.72;100106.00;5081442;28;20387;-62
2022/12/29 12:51:18;;;;;;;;;;;;;;;12.06;67.72;100109.59;5078718;28;19935;-64
2022/12/29 12:53:49;;;;;;;;;;;;;;;12.06;67.47;100116.69;5072863;28;19924;-65
2022/12/29 12:56:14;;;;;;;;;;;;;;;12.03;67.23;100115.94;5069775;28;32798;-64
2022/12/29 12:58:52;;;;;;;;;;;;;;;12.00;67.04;100104.78;5072699;28;20438;-63
2022/12/29 13:01:24;;;;;;;;;;;;;;;12.01;66.94;100107.31;5074702;28;20386;-63
2022/12/29 13:03:59;;;;;;;;;;;;;;;12.02;66.86;100108.16;5063397;28;20294;-63
2022/12/29 13:06:25;;;;;;;;;;;;;;;12.03;66.93;100121.22;5054234;28;19923;-65
2022/12/29 13:09:19;;;;;;;;;;;;;;;11.98;66.91;100123.34;5076581;28;20298;-60
2022/12/29 13:11:51;;;;;;;;;;;;;;;11.98;67.44;100111.94;5071027;28;20010;-63
2022/12/29 13:14:22;;;;;;;;;;;;;;;11.92;67.96;100115.00;5074761;28;19920;-65
2022/12/29 13:16:48;;;;;;;;;;;;;;;11.89;68.24;100122.19;5077586;28;20450;-65
2022/12/29 13:19:16;;;;;;;;;;;;;;;11.92;68.14;100120.28;5079638;28;20007;-64
2022/12/29 13:21:57;;;;;;;;;;;;;;;11.90;68.29;100121.25;5064578;28;19962;-62
2022/12/29 13:24:31;;;;;;;;;;;;;;;11.87;68.66;100132.00;5085222;28;19977;-63
2022/12/29 13:27:17;;;;;;;;;;;;;;;11.86;68.98;100140.91;5076298;28;19923;-65